<?xml version="1.0" encoding="UTF-8" standalone="no" ?>
<gpx xmlns="http://www.topografix.com/GPX/1/1" xmlns:xsi="http://www.w3.org/2001/XMLSchema-instance" xsi:schemaLocation="http://www.topografix.com/GPX/1/1 http://www.topografix.com/GPX/1/1/gpx.xsd" version="1.1" creator="VisuGPX - https://www.visugpx.com">
  <metadata>
    <name>Les hameaux de Saint Paul le Jeune</name>
    <desc><![CDATA[Promenade dans les hameaux les plus hauts avec une traversée sur le Serre au dessus du Champval.
]]></desc>
  </metadata>
  <trk>
    <name><![CDATA[2017-11-28 13:33]]></name>
    <desc><![CDATA[<p>Heure de départ: 11/28/2017 13:33<br/>Heure d'arrivée: 11/28/2017 16:20<br/>Distance: 6,8 km (02:47)<br/>Temps déplacement: 01:31<br/>Vitesse moyenne: 2,44 km/h<br/>Vitesse moyenne mouv.: 4,5 km/h<br/>Vitesse Max.: 7,42 km/h<br/>Altitude minimale: 245 m<br/>Altitude maximale: 428 m<br/>Vitesse de montée: 188,8 m/h<br/>Vitesse de descente: -213,1 m/h<br/>Gain d'altitude: 273 m<br/>Perte d'altitude: -270 m<br/>Temps de montée: 01:27<br/>Temps de descente: 01:16<br/></p><hr align="center" width="480" style="height: 2px; width: 517px"/>]]></desc>
    <trkseg>
      <trkpt lat="44.33858" lon="4.15212">
        <ele>245.59</ele>
        <time>2017-11-28T12:33:08Z</time>
      </trkpt>
      <trkpt lat="44.33859" lon="4.15186">
        <ele>257.31</ele>
        <time>2017-11-28T12:33:14Z</time>
      </trkpt>
      <trkpt lat="44.33874" lon="4.1517">
        <ele>260.2</ele>
        <time>2017-11-28T12:33:36Z</time>
      </trkpt>
      <trkpt lat="44.33881" lon="4.15147">
        <ele>264.7</ele>
        <time>2017-11-28T12:33:46Z</time>
      </trkpt>
      <trkpt lat="44.33888" lon="4.15121">
        <ele>261.62</ele>
        <time>2017-11-28T12:34:02Z</time>
      </trkpt>
      <trkpt lat="44.33906" lon="4.15119">
        <ele>260.6</ele>
        <time>2017-11-28T12:34:20Z</time>
      </trkpt>
      <trkpt lat="44.33917" lon="4.15097">
        <ele>260.7</ele>
        <time>2017-11-28T12:34:36Z</time>
      </trkpt>
      <trkpt lat="44.33933" lon="4.15084">
        <ele>269.29</ele>
        <time>2017-11-28T12:34:51Z</time>
      </trkpt>
      <trkpt lat="44.33948" lon="4.15099">
        <ele>270.71</ele>
        <time>2017-11-28T12:35:12Z</time>
      </trkpt>
      <trkpt lat="44.33963" lon="4.15113">
        <ele>268.79</ele>
        <time>2017-11-28T12:35:26Z</time>
      </trkpt>
      <trkpt lat="44.33974" lon="4.15134">
        <ele>266.79</ele>
        <time>2017-11-28T12:35:42Z</time>
      </trkpt>
      <trkpt lat="44.33987" lon="4.15153">
        <ele>264.07</ele>
        <time>2017-11-28T12:35:58Z</time>
      </trkpt>
      <trkpt lat="44.34002" lon="4.15168">
        <ele>266.58</ele>
        <time>2017-11-28T12:36:13Z</time>
      </trkpt>
      <trkpt lat="44.34019" lon="4.1518">
        <ele>260.86</ele>
        <time>2017-11-28T12:36:29Z</time>
      </trkpt>
      <trkpt lat="44.3403" lon="4.15159">
        <ele>258.63</ele>
        <time>2017-11-28T12:36:46Z</time>
      </trkpt>
      <trkpt lat="44.34037" lon="4.15135">
        <ele>256.48</ele>
        <time>2017-11-28T12:37:03Z</time>
      </trkpt>
      <trkpt lat="44.34041" lon="4.1511">
        <ele>260.27</ele>
        <time>2017-11-28T12:37:19Z</time>
      </trkpt>
      <trkpt lat="44.3405" lon="4.15088">
        <ele>260.65</ele>
        <time>2017-11-28T12:37:36Z</time>
      </trkpt>
      <trkpt lat="44.34062" lon="4.15067">
        <ele>259.46</ele>
        <time>2017-11-28T12:37:51Z</time>
      </trkpt>
      <trkpt lat="44.34067" lon="4.15042">
        <ele>263.89</ele>
        <time>2017-11-28T12:38:09Z</time>
      </trkpt>
      <trkpt lat="44.34075" lon="4.15019">
        <ele>266.68</ele>
        <time>2017-11-28T12:38:27Z</time>
      </trkpt>
      <trkpt lat="44.34083" lon="4.14996">
        <ele>263.93</ele>
        <time>2017-11-28T12:38:44Z</time>
      </trkpt>
      <trkpt lat="44.34089" lon="4.14972">
        <ele>267.36</ele>
        <time>2017-11-28T12:38:59Z</time>
      </trkpt>
      <trkpt lat="44.341" lon="4.14951">
        <ele>263.53</ele>
        <time>2017-11-28T12:39:22Z</time>
      </trkpt>
      <trkpt lat="44.34093" lon="4.14927">
        <ele>264.9</ele>
        <time>2017-11-28T12:39:44Z</time>
      </trkpt>
      <trkpt lat="44.34078" lon="4.14912">
        <ele>268.67</ele>
        <time>2017-11-28T12:40:05Z</time>
      </trkpt>
      <trkpt lat="44.34066" lon="4.14891">
        <ele>267.6</ele>
        <time>2017-11-28T12:40:20Z</time>
      </trkpt>
      <trkpt lat="44.34052" lon="4.14874">
        <ele>268.52</ele>
        <time>2017-11-28T12:40:37Z</time>
      </trkpt>
      <trkpt lat="44.34069" lon="4.14863">
        <ele>280.69</ele>
        <time>2017-11-28T12:41:30Z</time>
      </trkpt>
      <trkpt lat="44.34088" lon="4.14863">
        <ele>288.96</ele>
        <time>2017-11-28T12:41:51Z</time>
      </trkpt>
      <trkpt lat="44.34098" lon="4.14842">
        <ele>289.68</ele>
        <time>2017-11-28T12:42:08Z</time>
      </trkpt>
      <trkpt lat="44.34112" lon="4.14826">
        <ele>293.7</ele>
        <time>2017-11-28T12:42:23Z</time>
      </trkpt>
      <trkpt lat="44.34124" lon="4.14806">
        <ele>292.39</ele>
        <time>2017-11-28T12:42:42Z</time>
      </trkpt>
      <trkpt lat="44.3414" lon="4.14794">
        <ele>291.69</ele>
        <time>2017-11-28T12:43:03Z</time>
      </trkpt>
      <trkpt lat="44.34159" lon="4.14791">
        <ele>289.69</ele>
        <time>2017-11-28T12:43:24Z</time>
      </trkpt>
      <trkpt lat="44.34177" lon="4.14795">
        <ele>291.79</ele>
        <time>2017-11-28T12:43:40Z</time>
      </trkpt>
      <trkpt lat="44.34192" lon="4.1481">
        <ele>295.42</ele>
        <time>2017-11-28T12:43:56Z</time>
      </trkpt>
      <trkpt lat="44.34209" lon="4.14819">
        <ele>295.43</ele>
        <time>2017-11-28T12:44:13Z</time>
      </trkpt>
      <trkpt lat="44.34226" lon="4.14831">
        <ele>302.6</ele>
        <time>2017-11-28T12:44:29Z</time>
      </trkpt>
      <trkpt lat="44.34242" lon="4.14842">
        <ele>303.39</ele>
        <time>2017-11-28T12:44:45Z</time>
      </trkpt>
      <trkpt lat="44.34261" lon="4.14851">
        <ele>302.63</ele>
        <time>2017-11-28T12:45:02Z</time>
      </trkpt>
      <trkpt lat="44.34279" lon="4.14854">
        <ele>305.71</ele>
        <time>2017-11-28T12:45:20Z</time>
      </trkpt>
      <trkpt lat="44.34298" lon="4.14855">
        <ele>309.86</ele>
        <time>2017-11-28T12:46:11Z</time>
      </trkpt>
      <trkpt lat="44.34314" lon="4.14841">
        <ele>305.49</ele>
        <time>2017-11-28T12:46:45Z</time>
      </trkpt>
      <trkpt lat="44.34332" lon="4.14845">
        <ele>309.85</ele>
        <time>2017-11-28T12:47:02Z</time>
      </trkpt>
      <trkpt lat="44.34351" lon="4.14851">
        <ele>305.67</ele>
        <time>2017-11-28T12:47:19Z</time>
      </trkpt>
      <trkpt lat="44.3436" lon="4.14873">
        <ele>304.67</ele>
        <time>2017-11-28T12:47:44Z</time>
      </trkpt>
      <trkpt lat="44.34372" lon="4.14892">
        <ele>306.87</ele>
        <time>2017-11-28T12:47:56Z</time>
      </trkpt>
      <trkpt lat="44.34372" lon="4.14917">
        <ele>304.11</ele>
        <time>2017-11-28T12:48:17Z</time>
      </trkpt>
      <trkpt lat="44.34378" lon="4.14941">
        <ele>307.69</ele>
        <time>2017-11-28T12:52:43Z</time>
      </trkpt>
      <trkpt lat="44.3439" lon="4.14922">
        <ele>312.54</ele>
        <time>2017-11-28T12:54:27Z</time>
      </trkpt>
      <trkpt lat="44.34407" lon="4.14912">
        <ele>308.77</ele>
        <time>2017-11-28T12:54:49Z</time>
      </trkpt>
      <trkpt lat="44.34425" lon="4.14915">
        <ele>314.36</ele>
        <time>2017-11-28T12:55:11Z</time>
      </trkpt>
      <trkpt lat="44.34443" lon="4.14917">
        <ele>313.78</ele>
        <time>2017-11-28T12:56:31Z</time>
      </trkpt>
      <trkpt lat="44.34461" lon="4.14912">
        <ele>319.45</ele>
        <time>2017-11-28T12:57:42Z</time>
      </trkpt>
      <trkpt lat="44.3448" lon="4.14919">
        <ele>325.32</ele>
        <time>2017-11-28T12:58:09Z</time>
      </trkpt>
      <trkpt lat="44.34498" lon="4.14923">
        <ele>326.69</ele>
        <time>2017-11-28T12:58:58Z</time>
      </trkpt>
      <trkpt lat="44.34517" lon="4.14915">
        <ele>332.45</ele>
        <time>2017-11-28T12:59:29Z</time>
      </trkpt>
      <trkpt lat="44.34535" lon="4.1491">
        <ele>331.67</ele>
        <time>2017-11-28T12:59:40Z</time>
      </trkpt>
      <trkpt lat="44.34551" lon="4.14898">
        <ele>339.63</ele>
        <time>2017-11-28T13:00:12Z</time>
      </trkpt>
      <trkpt lat="44.34569" lon="4.1489">
        <ele>343.01</ele>
        <time>2017-11-28T13:00:56Z</time>
      </trkpt>
      <trkpt lat="44.34586" lon="4.1488">
        <ele>344.35</ele>
        <time>2017-11-28T13:01:22Z</time>
      </trkpt>
      <trkpt lat="44.34604" lon="4.14873">
        <ele>338.39</ele>
        <time>2017-11-28T13:02:06Z</time>
      </trkpt>
      <trkpt lat="44.34616" lon="4.14855">
        <ele>332.82</ele>
        <time>2017-11-28T13:02:47Z</time>
      </trkpt>
      <trkpt lat="44.34632" lon="4.14842">
        <ele>337.72</ele>
        <time>2017-11-28T13:03:19Z</time>
      </trkpt>
      <trkpt lat="44.34649" lon="4.14833">
        <ele>348.67</ele>
        <time>2017-11-28T13:03:48Z</time>
      </trkpt>
      <trkpt lat="44.34667" lon="4.14827">
        <ele>354.98</ele>
        <time>2017-11-28T13:04:35Z</time>
      </trkpt>
      <trkpt lat="44.34683" lon="4.14813">
        <ele>359.36</ele>
        <time>2017-11-28T13:04:59Z</time>
      </trkpt>
      <trkpt lat="44.34699" lon="4.14803">
        <ele>355.21</ele>
        <time>2017-11-28T13:05:33Z</time>
      </trkpt>
      <trkpt lat="44.3471" lon="4.14783">
        <ele>357.63</ele>
        <time>2017-11-28T13:06:02Z</time>
      </trkpt>
      <trkpt lat="44.34727" lon="4.14774">
        <ele>361.64</ele>
        <time>2017-11-28T13:06:34Z</time>
      </trkpt>
      <trkpt lat="44.34742" lon="4.1476">
        <ele>363.96</ele>
        <time>2017-11-28T13:07:05Z</time>
      </trkpt>
      <trkpt lat="44.3476" lon="4.14754">
        <ele>368.09</ele>
        <time>2017-11-28T13:07:40Z</time>
      </trkpt>
      <trkpt lat="44.34778" lon="4.14758">
        <ele>372.17</ele>
        <time>2017-11-28T13:08:05Z</time>
      </trkpt>
      <trkpt lat="44.34798" lon="4.14756">
        <ele>372.35</ele>
        <time>2017-11-28T13:08:46Z</time>
      </trkpt>
      <trkpt lat="44.34816" lon="4.14751">
        <ele>372.74</ele>
        <time>2017-11-28T13:09:09Z</time>
      </trkpt>
      <trkpt lat="44.34835" lon="4.14749">
        <ele>373.61</ele>
        <time>2017-11-28T13:09:40Z</time>
      </trkpt>
      <trkpt lat="44.34852" lon="4.14751">
        <ele>383.07</ele>
        <time>2017-11-28T13:15:16Z</time>
      </trkpt>
      <trkpt lat="44.3487" lon="4.14743">
        <ele>390.82</ele>
        <time>2017-11-28T13:16:07Z</time>
      </trkpt>
      <trkpt lat="44.34888" lon="4.14736">
        <ele>394.68</ele>
        <time>2017-11-28T13:16:44Z</time>
      </trkpt>
      <trkpt lat="44.34904" lon="4.14727">
        <ele>398.68</ele>
        <time>2017-11-28T13:17:53Z</time>
      </trkpt>
      <trkpt lat="44.34918" lon="4.1471">
        <ele>394.24</ele>
        <time>2017-11-28T13:18:32Z</time>
      </trkpt>
      <trkpt lat="44.34929" lon="4.1469">
        <ele>396.6</ele>
        <time>2017-11-28T13:19:05Z</time>
      </trkpt>
      <trkpt lat="44.3493" lon="4.14664">
        <ele>392.78</ele>
        <time>2017-11-28T13:19:56Z</time>
      </trkpt>
      <trkpt lat="44.34939" lon="4.14642">
        <ele>394.5</ele>
        <time>2017-11-28T13:20:23Z</time>
      </trkpt>
      <trkpt lat="44.34949" lon="4.14621">
        <ele>399.6</ele>
        <time>2017-11-28T13:20:48Z</time>
      </trkpt>
      <trkpt lat="44.34957" lon="4.14597">
        <ele>400.39</ele>
        <time>2017-11-28T13:21:17Z</time>
      </trkpt>
      <trkpt lat="44.3497" lon="4.14577">
        <ele>399.79</ele>
        <time>2017-11-28T13:21:39Z</time>
      </trkpt>
      <trkpt lat="44.34981" lon="4.14557">
        <ele>399.72</ele>
        <time>2017-11-28T13:22:39Z</time>
      </trkpt>
      <trkpt lat="44.34993" lon="4.14537">
        <ele>397.58</ele>
        <time>2017-11-28T13:22:57Z</time>
      </trkpt>
      <trkpt lat="44.35008" lon="4.14521">
        <ele>404.56</ele>
        <time>2017-11-28T13:26:23Z</time>
      </trkpt>
      <trkpt lat="44.3502" lon="4.145">
        <ele>407.69</ele>
        <time>2017-11-28T13:26:54Z</time>
      </trkpt>
      <trkpt lat="44.35029" lon="4.14478">
        <ele>408.42</ele>
        <time>2017-11-28T13:27:27Z</time>
      </trkpt>
      <trkpt lat="44.35037" lon="4.14455">
        <ele>409.86</ele>
        <time>2017-11-28T13:27:56Z</time>
      </trkpt>
      <trkpt lat="44.35045" lon="4.14432">
        <ele>409.39</ele>
        <time>2017-11-28T13:28:26Z</time>
      </trkpt>
      <trkpt lat="44.35052" lon="4.14408">
        <ele>410.18</ele>
        <time>2017-11-28T13:28:57Z</time>
      </trkpt>
      <trkpt lat="44.35063" lon="4.14386">
        <ele>410.66</ele>
        <time>2017-11-28T13:29:19Z</time>
      </trkpt>
      <trkpt lat="44.35072" lon="4.14364">
        <ele>408.1</ele>
        <time>2017-11-28T13:29:52Z</time>
      </trkpt>
      <trkpt lat="44.35081" lon="4.14342">
        <ele>406.69</ele>
        <time>2017-11-28T13:30:16Z</time>
      </trkpt>
      <trkpt lat="44.35089" lon="4.14319">
        <ele>406.69</ele>
        <time>2017-11-28T13:30:38Z</time>
      </trkpt>
      <trkpt lat="44.35099" lon="4.14298">
        <ele>407.39</ele>
        <time>2017-11-28T13:30:59Z</time>
      </trkpt>
      <trkpt lat="44.35109" lon="4.14277">
        <ele>405.05</ele>
        <time>2017-11-28T13:31:17Z</time>
      </trkpt>
      <trkpt lat="44.35117" lon="4.14254">
        <ele>413.69</ele>
        <time>2017-11-28T13:31:57Z</time>
      </trkpt>
      <trkpt lat="44.35116" lon="4.14228">
        <ele>412.69</ele>
        <time>2017-11-28T13:32:35Z</time>
      </trkpt>
      <trkpt lat="44.35113" lon="4.14203">
        <ele>411.08</ele>
        <time>2017-11-28T13:32:55Z</time>
      </trkpt>
      <trkpt lat="44.35107" lon="4.14178">
        <ele>416.44</ele>
        <time>2017-11-28T13:33:22Z</time>
      </trkpt>
      <trkpt lat="44.35104" lon="4.14153">
        <ele>416.74</ele>
        <time>2017-11-28T13:33:40Z</time>
      </trkpt>
      <trkpt lat="44.35095" lon="4.14131">
        <ele>415.03</ele>
        <time>2017-11-28T13:34:05Z</time>
      </trkpt>
      <trkpt lat="44.35077" lon="4.14125">
        <ele>416.6</ele>
        <time>2017-11-28T13:34:34Z</time>
      </trkpt>
      <trkpt lat="44.35059" lon="4.14123">
        <ele>421.66</ele>
        <time>2017-11-28T13:34:54Z</time>
      </trkpt>
      <trkpt lat="44.35041" lon="4.14118">
        <ele>411.87</ele>
        <time>2017-11-28T13:35:23Z</time>
      </trkpt>
      <trkpt lat="44.35024" lon="4.14106">
        <ele>407.97</ele>
        <time>2017-11-28T13:35:45Z</time>
      </trkpt>
      <trkpt lat="44.35008" lon="4.14094">
        <ele>411.66</ele>
        <time>2017-11-28T13:36:07Z</time>
      </trkpt>
      <trkpt lat="44.34991" lon="4.14086">
        <ele>412.71</ele>
        <time>2017-11-28T13:36:26Z</time>
      </trkpt>
      <trkpt lat="44.34973" lon="4.14078">
        <ele>414.97</ele>
        <time>2017-11-28T13:36:45Z</time>
      </trkpt>
      <trkpt lat="44.34956" lon="4.14068">
        <ele>412.72</ele>
        <time>2017-11-28T13:37:09Z</time>
      </trkpt>
      <trkpt lat="44.3494" lon="4.14057">
        <ele>415.37</ele>
        <time>2017-11-28T13:37:28Z</time>
      </trkpt>
      <trkpt lat="44.34927" lon="4.14039">
        <ele>411.98</ele>
        <time>2017-11-28T13:37:47Z</time>
      </trkpt>
      <trkpt lat="44.3493" lon="4.14014">
        <ele>413.77</ele>
        <time>2017-11-28T13:38:18Z</time>
      </trkpt>
      <trkpt lat="44.34932" lon="4.13989">
        <ele>415.92</ele>
        <time>2017-11-28T13:38:48Z</time>
      </trkpt>
      <trkpt lat="44.34929" lon="4.13963">
        <ele>418.57</ele>
        <time>2017-11-28T13:39:12Z</time>
      </trkpt>
      <trkpt lat="44.34916" lon="4.13945">
        <ele>415.42</ele>
        <time>2017-11-28T13:39:33Z</time>
      </trkpt>
      <trkpt lat="44.34897" lon="4.13942">
        <ele>419.87</ele>
        <time>2017-11-28T13:39:54Z</time>
      </trkpt>
      <trkpt lat="44.34882" lon="4.13928">
        <ele>413.91</ele>
        <time>2017-11-28T13:40:20Z</time>
      </trkpt>
      <trkpt lat="44.34875" lon="4.13903">
        <ele>408.45</ele>
        <time>2017-11-28T13:40:46Z</time>
      </trkpt>
      <trkpt lat="44.34864" lon="4.13884">
        <ele>415.36</ele>
        <time>2017-11-28T13:41:05Z</time>
      </trkpt>
      <trkpt lat="44.34851" lon="4.13864">
        <ele>412.61</ele>
        <time>2017-11-28T13:41:27Z</time>
      </trkpt>
      <trkpt lat="44.34843" lon="4.13841">
        <ele>417.66</ele>
        <time>2017-11-28T13:42:45Z</time>
      </trkpt>
      <trkpt lat="44.34838" lon="4.13816">
        <ele>421.69</ele>
        <time>2017-11-28T13:46:00Z</time>
      </trkpt>
      <trkpt lat="44.3483" lon="4.13793">
        <ele>415.7</ele>
        <time>2017-11-28T13:46:28Z</time>
      </trkpt>
      <trkpt lat="44.34817" lon="4.13774">
        <ele>412.96</ele>
        <time>2017-11-28T13:46:46Z</time>
      </trkpt>
      <trkpt lat="44.34806" lon="4.13754">
        <ele>406.78</ele>
        <time>2017-11-28T13:47:10Z</time>
      </trkpt>
      <trkpt lat="44.34801" lon="4.1373">
        <ele>407.03</ele>
        <time>2017-11-28T13:47:26Z</time>
      </trkpt>
      <trkpt lat="44.34788" lon="4.13711">
        <ele>411.78</ele>
        <time>2017-11-28T13:47:49Z</time>
      </trkpt>
      <trkpt lat="44.34785" lon="4.13686">
        <ele>412.08</ele>
        <time>2017-11-28T13:48:10Z</time>
      </trkpt>
      <trkpt lat="44.34785" lon="4.1366">
        <ele>407.39</ele>
        <time>2017-11-28T13:48:31Z</time>
      </trkpt>
      <trkpt lat="44.34792" lon="4.13635">
        <ele>405.65</ele>
        <time>2017-11-28T13:48:55Z</time>
      </trkpt>
      <trkpt lat="44.34797" lon="4.13611">
        <ele>412.53</ele>
        <time>2017-11-28T13:49:16Z</time>
      </trkpt>
      <trkpt lat="44.34811" lon="4.13594">
        <ele>409.36</ele>
        <time>2017-11-28T13:49:34Z</time>
      </trkpt>
      <trkpt lat="44.34823" lon="4.13574">
        <ele>405.04</ele>
        <time>2017-11-28T13:50:13Z</time>
      </trkpt>
      <trkpt lat="44.34826" lon="4.13547">
        <ele>404.91</ele>
        <time>2017-11-28T13:50:45Z</time>
      </trkpt>
      <trkpt lat="44.3482" lon="4.13522">
        <ele>409.35</ele>
        <time>2017-11-28T13:51:03Z</time>
      </trkpt>
      <trkpt lat="44.34813" lon="4.13499">
        <ele>403.92</ele>
        <time>2017-11-28T13:51:34Z</time>
      </trkpt>
      <trkpt lat="44.34802" lon="4.13478">
        <ele>401.76</ele>
        <time>2017-11-28T13:52:17Z</time>
      </trkpt>
      <trkpt lat="44.34792" lon="4.13456">
        <ele>409.36</ele>
        <time>2017-11-28T13:52:33Z</time>
      </trkpt>
      <trkpt lat="44.34779" lon="4.13439">
        <ele>404.34</ele>
        <time>2017-11-28T13:53:20Z</time>
      </trkpt>
      <trkpt lat="44.34765" lon="4.13423">
        <ele>394.81</ele>
        <time>2017-11-28T13:53:43Z</time>
      </trkpt>
      <trkpt lat="44.34752" lon="4.13406">
        <ele>399.56</ele>
        <time>2017-11-28T13:54:01Z</time>
      </trkpt>
      <trkpt lat="44.34736" lon="4.13393">
        <ele>407.71</ele>
        <time>2017-11-28T13:54:29Z</time>
      </trkpt>
      <trkpt lat="44.34721" lon="4.1338">
        <ele>414.68</ele>
        <time>2017-11-28T13:55:04Z</time>
      </trkpt>
      <trkpt lat="44.34706" lon="4.13364">
        <ele>413.23</ele>
        <time>2017-11-28T13:57:36Z</time>
      </trkpt>
      <trkpt lat="44.34688" lon="4.13364">
        <ele>410.69</ele>
        <time>2017-11-28T13:58:01Z</time>
      </trkpt>
      <trkpt lat="44.34671" lon="4.13375">
        <ele>409.66</ele>
        <time>2017-11-28T13:58:39Z</time>
      </trkpt>
      <trkpt lat="44.34653" lon="4.13379">
        <ele>409.5</ele>
        <time>2017-11-28T13:58:58Z</time>
      </trkpt>
      <trkpt lat="44.34634" lon="4.13377">
        <ele>412.63</ele>
        <time>2017-11-28T13:59:21Z</time>
      </trkpt>
      <trkpt lat="44.34619" lon="4.13362">
        <ele>415.99</ele>
        <time>2017-11-28T14:00:02Z</time>
      </trkpt>
      <trkpt lat="44.34602" lon="4.13353">
        <ele>409.18</ele>
        <time>2017-11-28T14:00:23Z</time>
      </trkpt>
      <trkpt lat="44.34584" lon="4.13345">
        <ele>416.6</ele>
        <time>2017-11-28T14:00:41Z</time>
      </trkpt>
      <trkpt lat="44.34566" lon="4.13342">
        <ele>418.99</ele>
        <time>2017-11-28T14:01:16Z</time>
      </trkpt>
      <trkpt lat="44.34548" lon="4.1334">
        <ele>424.97</ele>
        <time>2017-11-28T14:01:43Z</time>
      </trkpt>
      <trkpt lat="44.3453" lon="4.13347">
        <ele>423.75</ele>
        <time>2017-11-28T14:02:04Z</time>
      </trkpt>
      <trkpt lat="44.34519" lon="4.13366">
        <ele>425.96</ele>
        <time>2017-11-28T14:02:32Z</time>
      </trkpt>
      <trkpt lat="44.34505" lon="4.13383">
        <ele>428.43</ele>
        <time>2017-11-28T14:03:12Z</time>
      </trkpt>
      <trkpt lat="44.34486" lon="4.13389">
        <ele>420.7</ele>
        <time>2017-11-28T14:03:37Z</time>
      </trkpt>
      <trkpt lat="44.34469" lon="4.13393">
        <ele>417.79</ele>
        <time>2017-11-28T14:03:58Z</time>
      </trkpt>
      <trkpt lat="44.34451" lon="4.13387">
        <ele>405.61</ele>
        <time>2017-11-28T14:04:24Z</time>
      </trkpt>
      <trkpt lat="44.34432" lon="4.13385">
        <ele>406.75</ele>
        <time>2017-11-28T14:04:39Z</time>
      </trkpt>
      <trkpt lat="44.34414" lon="4.13384">
        <ele>409.34</ele>
        <time>2017-11-28T14:05:02Z</time>
      </trkpt>
      <trkpt lat="44.34396" lon="4.13387">
        <ele>420.99</ele>
        <time>2017-11-28T14:05:22Z</time>
      </trkpt>
      <trkpt lat="44.34377" lon="4.13388">
        <ele>421.16</ele>
        <time>2017-11-28T14:05:59Z</time>
      </trkpt>
      <trkpt lat="44.34358" lon="4.13392">
        <ele>417.77</ele>
        <time>2017-11-28T14:06:15Z</time>
      </trkpt>
      <trkpt lat="44.34338" lon="4.13396">
        <ele>406.76</ele>
        <time>2017-11-28T14:06:51Z</time>
      </trkpt>
      <trkpt lat="44.3432" lon="4.13403">
        <ele>411.57</ele>
        <time>2017-11-28T14:07:03Z</time>
      </trkpt>
      <trkpt lat="44.34302" lon="4.13413">
        <ele>405.49</ele>
        <time>2017-11-28T14:07:19Z</time>
      </trkpt>
      <trkpt lat="44.34285" lon="4.13421">
        <ele>413.4</ele>
        <time>2017-11-28T14:07:46Z</time>
      </trkpt>
      <trkpt lat="44.34267" lon="4.13423">
        <ele>395.46</ele>
        <time>2017-11-28T14:08:18Z</time>
      </trkpt>
      <trkpt lat="44.34251" lon="4.13437">
        <ele>395.75</ele>
        <time>2017-11-28T14:08:50Z</time>
      </trkpt>
      <trkpt lat="44.34237" lon="4.13452">
        <ele>395.63</ele>
        <time>2017-11-28T14:09:10Z</time>
      </trkpt>
      <trkpt lat="44.34224" lon="4.1347">
        <ele>402.72</ele>
        <time>2017-11-28T14:09:38Z</time>
      </trkpt>
      <trkpt lat="44.34214" lon="4.13491">
        <ele>393.81</ele>
        <time>2017-11-28T14:10:19Z</time>
      </trkpt>
      <trkpt lat="44.342" lon="4.13507">
        <ele>390.92</ele>
        <time>2017-11-28T14:10:49Z</time>
      </trkpt>
      <trkpt lat="44.34182" lon="4.13517">
        <ele>390.13</ele>
        <time>2017-11-28T14:11:21Z</time>
      </trkpt>
      <trkpt lat="44.34165" lon="4.13531">
        <ele>390.3</ele>
        <time>2017-11-28T14:11:47Z</time>
      </trkpt>
      <trkpt lat="44.34153" lon="4.13549">
        <ele>390.56</ele>
        <time>2017-11-28T14:12:01Z</time>
      </trkpt>
      <trkpt lat="44.34137" lon="4.13564">
        <ele>394.78</ele>
        <time>2017-11-28T14:12:19Z</time>
      </trkpt>
      <trkpt lat="44.34123" lon="4.13581">
        <ele>396.58</ele>
        <time>2017-11-28T14:12:38Z</time>
      </trkpt>
      <trkpt lat="44.34107" lon="4.13594">
        <ele>384.66</ele>
        <time>2017-11-28T14:13:01Z</time>
      </trkpt>
      <trkpt lat="44.34094" lon="4.13612">
        <ele>388.18</ele>
        <time>2017-11-28T14:13:27Z</time>
      </trkpt>
      <trkpt lat="44.34079" lon="4.13631">
        <ele>385.38</ele>
        <time>2017-11-28T14:13:52Z</time>
      </trkpt>
      <trkpt lat="44.34069" lon="4.13653">
        <ele>385.61</ele>
        <time>2017-11-28T14:14:08Z</time>
      </trkpt>
      <trkpt lat="44.34058" lon="4.13675">
        <ele>388.02</ele>
        <time>2017-11-28T14:14:42Z</time>
      </trkpt>
      <trkpt lat="44.34046" lon="4.13695">
        <ele>388.45</ele>
        <time>2017-11-28T14:15:06Z</time>
      </trkpt>
      <trkpt lat="44.34031" lon="4.13711">
        <ele>385.62</ele>
        <time>2017-11-28T14:15:26Z</time>
      </trkpt>
      <trkpt lat="44.34022" lon="4.13735">
        <ele>388.37</ele>
        <time>2017-11-28T14:15:51Z</time>
      </trkpt>
      <trkpt lat="44.34011" lon="4.13754">
        <ele>394.63</ele>
        <time>2017-11-28T14:16:12Z</time>
      </trkpt>
      <trkpt lat="44.33998" lon="4.13773">
        <ele>404.85</ele>
        <time>2017-11-28T14:16:51Z</time>
      </trkpt>
      <trkpt lat="44.33989" lon="4.13795">
        <ele>392.13</ele>
        <time>2017-11-28T14:17:23Z</time>
      </trkpt>
      <trkpt lat="44.33976" lon="4.13814">
        <ele>391.9</ele>
        <time>2017-11-28T14:17:48Z</time>
      </trkpt>
      <trkpt lat="44.3396" lon="4.13828">
        <ele>390.79</ele>
        <time>2017-11-28T14:18:11Z</time>
      </trkpt>
      <trkpt lat="44.33945" lon="4.13843">
        <ele>391.72</ele>
        <time>2017-11-28T14:18:29Z</time>
      </trkpt>
      <trkpt lat="44.33928" lon="4.13855">
        <ele>396.81</ele>
        <time>2017-11-28T14:18:51Z</time>
      </trkpt>
      <trkpt lat="44.3391" lon="4.13866">
        <ele>401.63</ele>
        <time>2017-11-28T14:19:07Z</time>
      </trkpt>
      <trkpt lat="44.33896" lon="4.13883">
        <ele>391.47</ele>
        <time>2017-11-28T14:19:30Z</time>
      </trkpt>
      <trkpt lat="44.3388" lon="4.13893">
        <ele>393.87</ele>
        <time>2017-11-28T14:19:57Z</time>
      </trkpt>
      <trkpt lat="44.33862" lon="4.13897">
        <ele>395.66</ele>
        <time>2017-11-28T14:23:29Z</time>
      </trkpt>
      <trkpt lat="44.33853" lon="4.1392">
        <ele>394.83</ele>
        <time>2017-11-28T14:23:55Z</time>
      </trkpt>
      <trkpt lat="44.33838" lon="4.13935">
        <ele>383.87</ele>
        <time>2017-11-28T14:24:12Z</time>
      </trkpt>
      <trkpt lat="44.33823" lon="4.13951">
        <ele>391.34</ele>
        <time>2017-11-28T14:24:33Z</time>
      </trkpt>
      <trkpt lat="44.33805" lon="4.13956">
        <ele>396.45</ele>
        <time>2017-11-28T14:24:50Z</time>
      </trkpt>
      <trkpt lat="44.33786" lon="4.13952">
        <ele>395.69</ele>
        <time>2017-11-28T14:25:07Z</time>
      </trkpt>
      <trkpt lat="44.33768" lon="4.13958">
        <ele>384.4</ele>
        <time>2017-11-28T14:25:34Z</time>
      </trkpt>
      <trkpt lat="44.3375" lon="4.1396">
        <ele>381.96</ele>
        <time>2017-11-28T14:26:06Z</time>
      </trkpt>
      <trkpt lat="44.33732" lon="4.13967">
        <ele>378.2</ele>
        <time>2017-11-28T14:26:20Z</time>
      </trkpt>
      <trkpt lat="44.33714" lon="4.13964">
        <ele>377.58</ele>
        <time>2017-11-28T14:26:43Z</time>
      </trkpt>
      <trkpt lat="44.33695" lon="4.13959">
        <ele>374.6</ele>
        <time>2017-11-28T14:27:06Z</time>
      </trkpt>
      <trkpt lat="44.33679" lon="4.1397">
        <ele>379.98</ele>
        <time>2017-11-28T14:27:24Z</time>
      </trkpt>
      <trkpt lat="44.33663" lon="4.13982">
        <ele>377.4</ele>
        <time>2017-11-28T14:27:58Z</time>
      </trkpt>
      <trkpt lat="44.33645" lon="4.13986">
        <ele>378.12</ele>
        <time>2017-11-28T14:28:33Z</time>
      </trkpt>
      <trkpt lat="44.33626" lon="4.1399">
        <ele>364.04</ele>
        <time>2017-11-28T14:28:52Z</time>
      </trkpt>
      <trkpt lat="44.33608" lon="4.13992">
        <ele>364.4</ele>
        <time>2017-11-28T14:29:32Z</time>
      </trkpt>
      <trkpt lat="44.3359" lon="4.13996">
        <ele>368.69</ele>
        <time>2017-11-28T14:29:59Z</time>
      </trkpt>
      <trkpt lat="44.33573" lon="4.13988">
        <ele>362.04</ele>
        <time>2017-11-28T14:30:33Z</time>
      </trkpt>
      <trkpt lat="44.33556" lon="4.13998">
        <ele>360.83</ele>
        <time>2017-11-28T14:31:31Z</time>
      </trkpt>
      <trkpt lat="44.33539" lon="4.14008">
        <ele>352.42</ele>
        <time>2017-11-28T14:32:45Z</time>
      </trkpt>
      <trkpt lat="44.33521" lon="4.14007">
        <ele>352.75</ele>
        <time>2017-11-28T14:33:19Z</time>
      </trkpt>
      <trkpt lat="44.33534" lon="4.13991">
        <ele>369.01</ele>
        <time>2017-11-28T14:37:44Z</time>
      </trkpt>
      <trkpt lat="44.3355" lon="4.13975">
        <ele>352.91</ele>
        <time>2017-11-28T14:38:01Z</time>
      </trkpt>
      <trkpt lat="44.3356" lon="4.13953">
        <ele>348.7</ele>
        <time>2017-11-28T14:38:28Z</time>
      </trkpt>
      <trkpt lat="44.33571" lon="4.13932">
        <ele>344.93</ele>
        <time>2017-11-28T14:38:54Z</time>
      </trkpt>
      <trkpt lat="44.33583" lon="4.13913">
        <ele>344.31</ele>
        <time>2017-11-28T14:39:18Z</time>
      </trkpt>
      <trkpt lat="44.33591" lon="4.1389">
        <ele>344.48</ele>
        <time>2017-11-28T14:39:40Z</time>
      </trkpt>
      <trkpt lat="44.33603" lon="4.13871">
        <ele>345.67</ele>
        <time>2017-11-28T14:40:00Z</time>
      </trkpt>
      <trkpt lat="44.33616" lon="4.13853">
        <ele>339</ele>
        <time>2017-11-28T14:40:18Z</time>
      </trkpt>
      <trkpt lat="44.33628" lon="4.13834">
        <ele>337.63</ele>
        <time>2017-11-28T14:40:40Z</time>
      </trkpt>
      <trkpt lat="44.33612" lon="4.13823">
        <ele>324.69</ele>
        <time>2017-11-28T14:41:47Z</time>
      </trkpt>
      <trkpt lat="44.33594" lon="4.13818">
        <ele>328.57</ele>
        <time>2017-11-28T14:42:19Z</time>
      </trkpt>
      <trkpt lat="44.33575" lon="4.13813">
        <ele>324.69</ele>
        <time>2017-11-28T14:42:38Z</time>
      </trkpt>
      <trkpt lat="44.33557" lon="4.13817">
        <ele>321.45</ele>
        <time>2017-11-28T14:43:03Z</time>
      </trkpt>
      <trkpt lat="44.33538" lon="4.13816">
        <ele>325.72</ele>
        <time>2017-11-28T14:43:22Z</time>
      </trkpt>
      <trkpt lat="44.33526" lon="4.13796">
        <ele>324.33</ele>
        <time>2017-11-28T14:43:38Z</time>
      </trkpt>
      <trkpt lat="44.33508" lon="4.13788">
        <ele>311.07</ele>
        <time>2017-11-28T14:44:02Z</time>
      </trkpt>
      <trkpt lat="44.33491" lon="4.13778">
        <ele>311.72</ele>
        <time>2017-11-28T14:44:17Z</time>
      </trkpt>
      <trkpt lat="44.33477" lon="4.13762">
        <ele>310.6</ele>
        <time>2017-11-28T14:45:03Z</time>
      </trkpt>
      <trkpt lat="44.33471" lon="4.13738">
        <ele>318.6</ele>
        <time>2017-11-28T14:45:22Z</time>
      </trkpt>
      <trkpt lat="44.33453" lon="4.13734">
        <ele>315.79</ele>
        <time>2017-11-28T14:45:51Z</time>
      </trkpt>
      <trkpt lat="44.33436" lon="4.13743">
        <ele>306.21</ele>
        <time>2017-11-28T14:46:11Z</time>
      </trkpt>
      <trkpt lat="44.3342" lon="4.13756">
        <ele>306.69</ele>
        <time>2017-11-28T14:46:31Z</time>
      </trkpt>
      <trkpt lat="44.33402" lon="4.13766">
        <ele>297.83</ele>
        <time>2017-11-28T14:46:57Z</time>
      </trkpt>
      <trkpt lat="44.33385" lon="4.13776">
        <ele>308.37</ele>
        <time>2017-11-28T14:47:27Z</time>
      </trkpt>
      <trkpt lat="44.3337" lon="4.13792">
        <ele>310.28</ele>
        <time>2017-11-28T14:47:46Z</time>
      </trkpt>
      <trkpt lat="44.33354" lon="4.13804">
        <ele>307.41</ele>
        <time>2017-11-28T14:48:10Z</time>
      </trkpt>
      <trkpt lat="44.33346" lon="4.13828">
        <ele>306.29</ele>
        <time>2017-11-28T14:49:12Z</time>
      </trkpt>
      <trkpt lat="44.33331" lon="4.13843">
        <ele>316.39</ele>
        <time>2017-11-28T14:49:42Z</time>
      </trkpt>
      <trkpt lat="44.33319" lon="4.13863">
        <ele>320.59</ele>
        <time>2017-11-28T14:50:19Z</time>
      </trkpt>
      <trkpt lat="44.33323" lon="4.13887">
        <ele>320.66</ele>
        <time>2017-11-28T14:50:33Z</time>
      </trkpt>
      <trkpt lat="44.33336" lon="4.13905">
        <ele>312.72</ele>
        <time>2017-11-28T14:51:08Z</time>
      </trkpt>
      <trkpt lat="44.33345" lon="4.13929">
        <ele>314.66</ele>
        <time>2017-11-28T14:51:32Z</time>
      </trkpt>
      <trkpt lat="44.33355" lon="4.13951">
        <ele>320.47</ele>
        <time>2017-11-28T14:51:49Z</time>
      </trkpt>
      <trkpt lat="44.33364" lon="4.13974">
        <ele>316.79</ele>
        <time>2017-11-28T14:52:07Z</time>
      </trkpt>
      <trkpt lat="44.33375" lon="4.13995">
        <ele>314.79</ele>
        <time>2017-11-28T14:53:24Z</time>
      </trkpt>
      <trkpt lat="44.33377" lon="4.14022">
        <ele>318.46</ele>
        <time>2017-11-28T14:53:47Z</time>
      </trkpt>
      <trkpt lat="44.33377" lon="4.1405">
        <ele>314.61</ele>
        <time>2017-11-28T14:54:03Z</time>
      </trkpt>
      <trkpt lat="44.33374" lon="4.14075">
        <ele>313.93</ele>
        <time>2017-11-28T14:54:28Z</time>
      </trkpt>
      <trkpt lat="44.33385" lon="4.14096">
        <ele>319.51</ele>
        <time>2017-11-28T14:55:01Z</time>
      </trkpt>
      <trkpt lat="44.33388" lon="4.14121">
        <ele>326.99</ele>
        <time>2017-11-28T14:55:29Z</time>
      </trkpt>
      <trkpt lat="44.33388" lon="4.14147">
        <ele>329.67</ele>
        <time>2017-11-28T14:55:48Z</time>
      </trkpt>
      <trkpt lat="44.33378" lon="4.14168">
        <ele>330.46</ele>
        <time>2017-11-28T14:56:04Z</time>
      </trkpt>
      <trkpt lat="44.33392" lon="4.14186">
        <ele>326.78</ele>
        <time>2017-11-28T14:56:33Z</time>
      </trkpt>
      <trkpt lat="44.33411" lon="4.14191">
        <ele>325.79</ele>
        <time>2017-11-28T14:56:44Z</time>
      </trkpt>
      <trkpt lat="44.33424" lon="4.1421">
        <ele>323.09</ele>
        <time>2017-11-28T14:57:11Z</time>
      </trkpt>
      <trkpt lat="44.33439" lon="4.14223">
        <ele>324.36</ele>
        <time>2017-11-28T14:57:51Z</time>
      </trkpt>
      <trkpt lat="44.33458" lon="4.14224">
        <ele>317</ele>
        <time>2017-11-28T14:58:12Z</time>
      </trkpt>
      <trkpt lat="44.33461" lon="4.14248">
        <ele>328.61</ele>
        <time>2017-11-28T14:59:16Z</time>
      </trkpt>
      <trkpt lat="44.33447" lon="4.14265">
        <ele>317.78</ele>
        <time>2017-11-28T14:59:31Z</time>
      </trkpt>
      <trkpt lat="44.33438" lon="4.14287">
        <ele>315.05</ele>
        <time>2017-11-28T14:59:48Z</time>
      </trkpt>
      <trkpt lat="44.33429" lon="4.14309">
        <ele>311.69</ele>
        <time>2017-11-28T15:00:12Z</time>
      </trkpt>
      <trkpt lat="44.33426" lon="4.14337">
        <ele>310.81</ele>
        <time>2017-11-28T15:00:25Z</time>
      </trkpt>
      <trkpt lat="44.33422" lon="4.14362">
        <ele>314.93</ele>
        <time>2017-11-28T15:00:52Z</time>
      </trkpt>
      <trkpt lat="44.33423" lon="4.14388">
        <ele>308.99</ele>
        <time>2017-11-28T15:01:09Z</time>
      </trkpt>
      <trkpt lat="44.33423" lon="4.14414">
        <ele>308</ele>
        <time>2017-11-28T15:01:30Z</time>
      </trkpt>
      <trkpt lat="44.33422" lon="4.1444">
        <ele>305.68</ele>
        <time>2017-11-28T15:01:53Z</time>
      </trkpt>
      <trkpt lat="44.33418" lon="4.14466">
        <ele>305.39</ele>
        <time>2017-11-28T15:02:07Z</time>
      </trkpt>
      <trkpt lat="44.33412" lon="4.14492">
        <ele>302.79</ele>
        <time>2017-11-28T15:02:24Z</time>
      </trkpt>
      <trkpt lat="44.33415" lon="4.14518">
        <ele>299.02</ele>
        <time>2017-11-28T15:02:45Z</time>
      </trkpt>
      <trkpt lat="44.33419" lon="4.14542">
        <ele>298.6</ele>
        <time>2017-11-28T15:03:02Z</time>
      </trkpt>
      <trkpt lat="44.33426" lon="4.14566">
        <ele>302.66</ele>
        <time>2017-11-28T15:03:50Z</time>
      </trkpt>
      <trkpt lat="44.33426" lon="4.14592">
        <ele>298.69</ele>
        <time>2017-11-28T15:04:13Z</time>
      </trkpt>
      <trkpt lat="44.33427" lon="4.14618">
        <ele>295.87</ele>
        <time>2017-11-28T15:04:30Z</time>
      </trkpt>
      <trkpt lat="44.3343" lon="4.14643">
        <ele>293.62</ele>
        <time>2017-11-28T15:04:51Z</time>
      </trkpt>
      <trkpt lat="44.33444" lon="4.14659">
        <ele>295.38</ele>
        <time>2017-11-28T15:05:18Z</time>
      </trkpt>
      <trkpt lat="44.33462" lon="4.14665">
        <ele>292.09</ele>
        <time>2017-11-28T15:05:31Z</time>
      </trkpt>
      <trkpt lat="44.3348" lon="4.14663">
        <ele>292.69</ele>
        <time>2017-11-28T15:05:46Z</time>
      </trkpt>
      <trkpt lat="44.33499" lon="4.14659">
        <ele>292.37</ele>
        <time>2017-11-28T15:06:04Z</time>
      </trkpt>
      <trkpt lat="44.33516" lon="4.14649">
        <ele>288.79</ele>
        <time>2017-11-28T15:06:26Z</time>
      </trkpt>
      <trkpt lat="44.33535" lon="4.14651">
        <ele>296.04</ele>
        <time>2017-11-28T15:06:37Z</time>
      </trkpt>
      <trkpt lat="44.33556" lon="4.14652">
        <ele>296.66</ele>
        <time>2017-11-28T15:06:45Z</time>
      </trkpt>
      <trkpt lat="44.33575" lon="4.14648">
        <ele>297.61</ele>
        <time>2017-11-28T15:07:15Z</time>
      </trkpt>
      <trkpt lat="44.33594" lon="4.14643">
        <ele>296.39</ele>
        <time>2017-11-28T15:07:54Z</time>
      </trkpt>
      <trkpt lat="44.33612" lon="4.14647">
        <ele>295.73</ele>
        <time>2017-11-28T15:08:20Z</time>
      </trkpt>
      <trkpt lat="44.3363" lon="4.14651">
        <ele>289.11</ele>
        <time>2017-11-28T15:08:33Z</time>
      </trkpt>
      <trkpt lat="44.3365" lon="4.14657">
        <ele>290.47</ele>
        <time>2017-11-28T15:08:48Z</time>
      </trkpt>
      <trkpt lat="44.33669" lon="4.14662">
        <ele>294.6</ele>
        <time>2017-11-28T15:08:57Z</time>
      </trkpt>
      <trkpt lat="44.33685" lon="4.14677">
        <ele>294.62</ele>
        <time>2017-11-28T15:09:22Z</time>
      </trkpt>
      <trkpt lat="44.33701" lon="4.14688">
        <ele>292.13</ele>
        <time>2017-11-28T15:09:34Z</time>
      </trkpt>
      <trkpt lat="44.33717" lon="4.14701">
        <ele>287.73</ele>
        <time>2017-11-28T15:09:57Z</time>
      </trkpt>
      <trkpt lat="44.33734" lon="4.14707">
        <ele>285.32</ele>
        <time>2017-11-28T15:10:15Z</time>
      </trkpt>
      <trkpt lat="44.33753" lon="4.14703">
        <ele>289.69</ele>
        <time>2017-11-28T15:10:38Z</time>
      </trkpt>
      <trkpt lat="44.3377" lon="4.14713">
        <ele>287.98</ele>
        <time>2017-11-28T15:10:52Z</time>
      </trkpt>
      <trkpt lat="44.33781" lon="4.14734">
        <ele>288.28</ele>
        <time>2017-11-28T15:11:08Z</time>
      </trkpt>
      <trkpt lat="44.33793" lon="4.14752">
        <ele>286.99</ele>
        <time>2017-11-28T15:11:41Z</time>
      </trkpt>
      <trkpt lat="44.33807" lon="4.14771">
        <ele>288.25</ele>
        <time>2017-11-28T15:11:54Z</time>
      </trkpt>
      <trkpt lat="44.33816" lon="4.14793">
        <ele>282.35</ele>
        <time>2017-11-28T15:12:12Z</time>
      </trkpt>
      <trkpt lat="44.33807" lon="4.14815">
        <ele>280.69</ele>
        <time>2017-11-28T15:12:50Z</time>
      </trkpt>
      <trkpt lat="44.33798" lon="4.14837">
        <ele>274.7</ele>
        <time>2017-11-28T15:13:16Z</time>
      </trkpt>
      <trkpt lat="44.33778" lon="4.14841">
        <ele>275.78</ele>
        <time>2017-11-28T15:13:40Z</time>
      </trkpt>
      <trkpt lat="44.33776" lon="4.14867">
        <ele>272.79</ele>
        <time>2017-11-28T15:13:50Z</time>
      </trkpt>
      <trkpt lat="44.33777" lon="4.14895">
        <ele>278.89</ele>
        <time>2017-11-28T15:14:15Z</time>
      </trkpt>
      <trkpt lat="44.3377" lon="4.14919">
        <ele>269.69</ele>
        <time>2017-11-28T15:14:35Z</time>
      </trkpt>
      <trkpt lat="44.3377" lon="4.14944">
        <ele>266</ele>
        <time>2017-11-28T15:14:55Z</time>
      </trkpt>
      <trkpt lat="44.33765" lon="4.14969">
        <ele>262.99</ele>
        <time>2017-11-28T15:15:13Z</time>
      </trkpt>
      <trkpt lat="44.3377" lon="4.14994">
        <ele>258.7</ele>
        <time>2017-11-28T15:15:30Z</time>
      </trkpt>
      <trkpt lat="44.33784" lon="4.1501">
        <ele>256.81</ele>
        <time>2017-11-28T15:15:53Z</time>
      </trkpt>
      <trkpt lat="44.33787" lon="4.15035">
        <ele>252.99</ele>
        <time>2017-11-28T15:17:11Z</time>
      </trkpt>
      <trkpt lat="44.33777" lon="4.15057">
        <ele>246.78</ele>
        <time>2017-11-28T15:17:35Z</time>
      </trkpt>
      <trkpt lat="44.3377" lon="4.1508">
        <ele>246.92</ele>
        <time>2017-11-28T15:17:55Z</time>
      </trkpt>
      <trkpt lat="44.33773" lon="4.15106">
        <ele>247.75</ele>
        <time>2017-11-28T15:18:35Z</time>
      </trkpt>
      <trkpt lat="44.33767" lon="4.15132">
        <ele>249.42</ele>
        <time>2017-11-28T15:18:54Z</time>
      </trkpt>
      <trkpt lat="44.33757" lon="4.15157">
        <ele>253.83</ele>
        <time>2017-11-28T15:19:16Z</time>
      </trkpt>
      <trkpt lat="44.33745" lon="4.15175">
        <ele>254.89</ele>
        <time>2017-11-28T15:19:53Z</time>
      </trkpt>
      <trkpt lat="44.33759" lon="4.15192">
        <ele>255.51</ele>
        <time>2017-11-28T15:20:13Z</time>
      </trkpt>
      <trkpt lat="44.33777" lon="4.152">
        <ele>254.68</ele>
        <time>2017-11-28T15:20:30Z</time>
      </trkpt>
      <trkpt lat="44.33794" lon="4.15208">
        <ele>255.05</ele>
        <time>2017-11-28T15:20:44Z</time>
      </trkpt>
    </trkseg>
  </trk>
</gpx>